Time;durP1;ratioP1;P1;durP2;ratioP2;P2;SDS_P1;SDS_P2;PMS_P1;PMS_P2;Temp;Humidity;BMP_temperature;BMP_pressure;BME280_temperature;BME280_humidity;BME280_pressure;Samples;Min_cycle;Max_cycle;Signal;HPM_P1;HPM_P2
2020/12/19 00:00:46;;;;;;;6.43;5.30;;;10.30;99.90;;;;;;4894565;29;20280;-68
2020/12/19 00:03:11;;;;;;;7.77;5.23;;;10.30;99.90;;;;;;4889759;29;20208;-68
2020/12/19 00:05:37;;;;;;;8.90;6.00;;;10.30;99.90;;;;;;4888206;29;20537;-68
2020/12/19 00:08:03;;;;;;;5.90;4.93;;;10.30;99.90;;;;;;4894160;29;20215;-67
2020/12/19 00:10:28;;;;;;;5.53;4.60;;;10.30;99.90;;;;;;4897559;29;20180;-68
2020/12/19 00:12:59;;;;;;;7.60;5.97;;;10.30;99.90;;;;;;4897350;29;20264;-67
2020/12/19 00:15:25;;;;;;;13.20;5.90;;;10.30;99.90;;;;;;4895466;29;20189;-67
2020/12/19 00:17:51;;;;;;;7.73;5.20;;;10.30;99.90;;;;;;4895775;29;20476;-67
2020/12/19 00:20:16;;;;;;;6.60;5.43;;;10.30;99.90;;;;;;4894604;29;20460;-67
2020/12/19 00:22:44;;;;;;;6.77;5.27;;;10.30;99.90;;;;;;4887717;29;20192;-67
2020/12/19 00:25:09;;;;;;;5.93;5.13;;;10.30;99.90;;;;;;4887172;29;20189;-70
2020/12/19 00:27:35;;;;;;;7.23;5.63;;;10.30;99.90;;;;;;4888098;29;20489;-69
2020/12/19 00:30:00;;;;;;;9.40;5.27;;;10.40;99.90;;;;;;4886780;29;20193;-70
2020/12/19 00:32:26;;;;;;;5.90;5.30;;;10.40;99.90;;;;;;4888722;29;20177;-69
2020/12/19 00:34:52;;;;;;;6.40;4.53;;;10.40;99.90;;;;;;4887667;29;20225;-71
2020/12/19 00:37:17;;;;;;;7.80;5.00;;;10.40;99.90;;;;;;4879041;29;20672;-68
2020/12/19 00:39:43;;;;;;;6.10;5.50;;;10.40;99.90;;;;;;4876709;29;20188;-68
2020/12/19 00:42:10;;;;;;;5.07;4.50;;;10.30;99.90;;;;;;4878562;29;20189;-67
2020/12/19 00:44:35;;;;;;;6.60;4.83;;;10.40;99.90;;;;;;4878112;29;20577;-67
2020/12/19 00:47:01;;;;;;;8.53;4.90;;;10.40;99.90;;;;;;4878787;29;20445;-67
2020/12/19 00:49:26;;;;;;;4.97;4.50;;;10.30;99.90;;;;;;4878721;29;20216;-67
2020/12/19 00:51:52;;;;;;;8.80;4.50;;;10.30;99.90;;;;;;4878713;29;20185;-67
2020/12/19 00:54:17;;;;;;;7.70;5.07;;;10.30;99.90;;;;;;4878611;29;20204;-67
2020/12/19 00:56:43;;;;;;;6.50;5.23;;;10.30;99.90;;;;;;4878521;29;20656;-67
2020/12/19 00:59:08;;;;;;;7.23;4.30;;;10.30;99.90;;;;;;4878446;29;20296;-67
2020/12/19 01:01:34;;;;;;;6.60;4.87;;;10.20;99.90;;;;;;4878527;29;20594;-67
2020/12/19 01:04:00;;;;;;;6.23;5.10;;;10.20;99.90;;;;;;4877779;29;20806;-67
2020/12/19 01:06:27;;;;;;;5.00;4.50;;;10.10;99.90;;;;;;4878654;29;20953;-67
2020/12/19 01:08:59;;;;;;;5.20;4.23;;;10.10;99.90;;;;;;4878604;29;20513;-67
2020/12/19 01:11:26;;;;;;;7.47;4.07;;;10.10;99.90;;;;;;4878651;29;20532;-68
2020/12/19 01:13:52;;;;;;;6.13;4.60;;;10.10;99.90;;;;;;4878477;29;20525;-68
2020/12/19 01:16:23;;;;;;;8.40;5.37;;;10.00;99.90;;;;;;4878431;29;20963;-67
2020/12/19 01:18:50;;;;;;;7.17;4.60;;;10.00;99.90;;;;;;4878375;29;20477;-68
2020/12/19 01:21:21;;;;;;;6.67;4.70;;;10.00;99.90;;;;;;4878426;29;20465;-67
2020/12/19 01:23:48;;;;;;;6.37;4.67;;;10.00;99.90;;;;;;4878295;29;20448;-68
2020/12/19 01:26:14;;;;;;;5.33;4.60;;;10.00;99.90;;;;;;4878439;29;20437;-68
2020/12/19 01:28:40;;;;;;;5.63;4.40;;;9.90;99.90;;;;;;4878315;29;20544;-67
2020/12/19 01:31:07;;;;;;;5.37;4.20;;;10.00;99.90;;;;;;4879385;29;20835;-67
2020/12/19 01:33:35;;;;;;;4.83;4.17;;;10.10;99.90;;;;;;4878480;29;20185;-67
2020/12/19 01:36:01;;;;;;;7.47;5.47;;;10.10;99.90;;;;;;4878282;29;20497;-67
2020/12/19 01:38:26;;;;;;;8.10;4.20;;;10.10;99.90;;;;;;4878377;29;20434;-67
2020/12/19 01:40:54;;;;;;;6.50;4.90;;;10.10;99.90;;;;;;4878288;29;20429;-67
2020/12/19 01:43:20;;;;;;;5.47;4.43;;;10.20;99.90;;;;;;4878368;29;20550;-67
2020/12/19 01:45:47;;;;;;;6.07;4.80;;;10.30;99.90;;;;;;4878070;29;20519;-68
2020/12/19 01:48:26;;;;;;;8.40;5.37;;;10.40;99.90;;;;;;4878258;29;20481;-67
2020/12/19 01:50:53;;;;;;;6.50;4.93;;;10.30;99.90;;;;;;4878244;29;20436;-67
2020/12/19 01:53:23;;;;;;;7.27;5.57;;;10.40;99.90;;;;;;4877899;29;20433;-67
2020/12/19 01:55:52;;;;;;;8.17;5.20;;;10.40;99.90;;;;;;4878282;29;20425;-67
2020/12/19 01:58:18;;;;;;;5.97;5.37;;;10.50;99.90;;;;;;4878867;29;20443;-67
2020/12/19 02:00:43;;;;;;;6.70;5.33;;;10.50;99.90;;;;;;4878664;29;20865;-66
2020/12/19 02:03:09;;;;;;;7.37;6.50;;;10.50;99.90;;;;;;4878868;29;20192;-65
2020/12/19 02:05:43;;;;;;;8.07;5.43;;;10.50;99.90;;;;;;4878931;29;20691;-67
2020/12/19 02:08:10;;;;;;;6.77;5.77;;;10.50;99.90;;;;;;4878777;29;20465;-67
2020/12/19 06:30:37;;;;;;;11.43;8.43;;;10.10;99.90;;;;;;5810494;23;20661;-68
2020/12/19 06:33:10;;;;;;;11.53;9.00;;;10.10;99.90;;;;;;4919420;29;20526;-68
2020/12/19 06:35:36;;;;;;;10.77;8.50;;;10.10;99.90;;;;;;4919355;29;20472;-68
2020/12/19 06:38:02;;;;;;;13.97;9.33;;;10.20;99.90;;;;;;4919441;29;20440;-68
2020/12/19 06:40:37;;;;;;;11.50;9.20;;;10.10;99.90;;;;;;4919379;29;20176;-68
2020/12/19 06:43:14;;;;;;;13.67;9.40;;;10.20;99.90;;;;;;4919326;29;20435;-68
2020/12/19 06:45:40;;;;;;;12.00;9.90;;;10.10;99.90;;;;;;4919186;29;20431;-68
2020/12/19 06:48:29;;;;;;;11.87;8.53;;;10.10;99.90;;;;;;4919112;29;20471;-68
2020/12/19 06:50:56;;;;;;;15.37;9.80;;;10.20;99.90;;;;;;4919146;29;20793;-67
2020/12/19 06:53:21;;;;;;;16.07;10.43;;;10.10;99.90;;;;;;4919143;29;20439;-66
2020/12/19 06:55:47;;;;;;;11.90;9.80;;;10.10;99.90;;;;;;4919182;29;20436;-65
2020/12/19 06:58:33;;;;;;;13.23;10.23;;;10.00;99.90;;;;;;4918615;29;20250;-66
2020/12/19 07:00:59;;;;;;;12.67;9.50;;;10.00;99.90;;;;;;4918970;29;20202;-66
2020/12/19 07:03:35;;;;;;;11.70;9.50;;;10.10;99.90;;;;;;4918957;29;20942;-74
2020/12/19 07:06:16;;;;;;;11.50;9.17;;;10.00;99.90;;;;;;4918766;29;21112;-66
2020/12/19 07:08:43;;;;;;;12.70;9.67;;;10.00;99.90;;;;;;4918640;29;20472;-66
2020/12/19 07:11:38;;;;;;;12.50;10.23;;;10.10;99.90;;;;;;4918684;29;20438;-66
2020/12/19 07:14:13;;;;;;;11.10;9.57;;;10.10;99.90;;;;;;4917325;29;20436;-70
2020/12/19 07:16:56;;;;;;;13.60;10.30;;;10.20;99.90;;;;;;4917854;29;20427;-65
2020/12/19 07:19:27;;;;;;;15.48;11.63;;;10.00;99.90;;;;;;4917288;29;20534;-67
2020/12/19 07:21:54;;;;;;;14.60;11.60;;;10.20;99.90;;;;;;4931349;23;20180;-67
2020/12/19 07:24:21;;;;;;;12.70;10.37;;;10.30;99.90;;;;;;4917842;29;20439;-65
2020/12/19 07:26:47;;;;;;;16.30;11.20;;;10.20;99.90;;;;;;4917451;29;20817;-67
2020/12/19 07:29:20;;;;;;;12.50;10.10;;;10.30;99.90;;;;;;4917714;29;20579;-67
2020/12/19 07:31:59;;;;;;;15.77;10.57;;;10.30;99.90;;;;;;4917577;29;20194;-68
2020/12/19 07:34:26;;;;;;;14.93;11.10;;;10.30;99.90;;;;;;4917442;29;20419;-68
2020/12/19 07:36:53;;;;;;;16.80;12.50;;;10.50;99.90;;;;;;4917463;29;20451;-67
2020/12/19 07:39:20;;;;;;;12.63;11.00;;;10.50;99.90;;;;;;4917567;29;20428;-71
2020/12/19 07:42:03;;;;;;;16.27;11.47;;;10.50;99.90;;;;;;4917254;29;20934;-66
2020/12/19 07:44:28;;;;;;;14.53;10.33;;;10.50;99.90;;;;;;4917313;29;20454;-67
2020/12/19 07:47:04;;;;;;;14.27;10.70;;;10.50;99.90;;;;;;4917298;29;20459;-67
2020/12/19 07:49:45;;;;;;;14.63;11.70;;;10.50;99.90;;;;;;4917147;29;20210;-66
2020/12/19 07:55:34;;;;;;;14.37;10.77;;;10.70;99.90;;;;;;4918310;29;20407;-68
2020/12/19 07:58:02;;;;;;;13.90;11.50;;;10.60;99.90;;;;;;4918344;29;20435;-67
2020/12/19 08:00:28;;;;;;;14.47;11.00;;;10.70;99.90;;;;;;4918002;29;20432;-67
2020/12/19 08:02:54;;;;;;;13.65;10.57;;;10.80;99.90;;;;;;4917981;29;20505;-67
2020/12/19 08:08:40;;;;;;;13.40;10.10;;;10.80;99.90;;;;;;4917617;29;20211;-68
2020/12/19 08:11:07;;;;;;;14.60;8.83;;;11.00;99.90;;;;;;4917657;29;20982;-68
2020/12/19 08:13:34;;;;;;;12.90;10.80;;;11.00;99.90;;;;;;4917762;29;20180;-68
2020/12/19 08:15:59;;;;;;;12.87;9.23;;;11.00;99.90;;;;;;4918087;29;20770;-68
2020/12/19 08:21:48;;;;;;;12.17;9.13;;;11.10;99.90;;;;;;4917605;29;20191;-67
2020/12/19 08:24:14;;;;;;;13.20;9.33;;;11.10;99.90;;;;;;4918034;29;20424;-70
2020/12/19 08:26:39;;;;;;;11.67;8.90;;;11.10;99.90;;;;;;4917634;29;20847;-67
2020/12/19 08:29:06;;;;;;;12.57;9.80;;;11.10;99.90;;;;;;4917522;29;20222;-68
2020/12/19 08:34:54;;;;;;;12.20;8.90;;;11.10;99.90;;;;;;4917653;29;20416;-67
2020/12/19 08:37:20;;;;;;;13.97;9.00;;;11.30;99.90;;;;;;4917841;29;20432;-69
2020/12/19 08:40:04;;;;;;;9.97;8.90;;;11.30;99.90;;;;;;4917521;29;20184;-69
2020/12/19 08:42:31;;;;;;;14.87;9.13;;;11.30;99.90;;;;;;4917583;29;20187;-67
2020/12/19 08:48:23;;;;;;;11.50;9.70;;;11.30;99.90;;;;;;4917335;29;20993;-67
2020/12/19 08:50:51;;;;;;;11.27;9.07;;;11.30;99.90;;;;;;4917642;29;20836;-66
2020/12/19 08:53:24;;;;;;;11.93;8.90;;;11.30;99.90;;;;;;4917241;29;20961;-73
2020/12/19 08:55:50;;;;;;;12.20;9.20;;;11.40;99.90;;;;;;4917208;29;20452;-71
2020/12/19 08:58:26;;;;;;;12.30;8.40;;;11.40;99.90;;;;;;4917572;29;20510;-70
2020/12/19 09:00:53;;;;;;;12.90;8.33;;;11.40;99.90;;;;;;4917539;29;20919;-69
2020/12/19 09:03:29;;;;;;;14.10;9.13;;;11.40;99.90;;;;;;4917217;29;20487;-69
2020/12/19 09:09:28;;;;;;;11.23;7.73;;;11.40;99.90;;;;;;4916986;29;20479;-70
2020/12/19 09:15:18;;;;;;;10.43;8.83;;;11.50;99.90;;;;;;4917250;29;20772;-70
2020/12/19 09:21:09;;;;;;;10.03;7.53;;;11.40;99.90;;;;;;4918696;29;20419;-70
2020/12/19 09:23:36;;;;;;;11.67;9.00;;;11.50;99.90;;;;;;4920730;29;20471;-71
2020/12/19 09:29:23;;;;;;;13.53;8.43;;;11.40;99.90;;;;;;4920791;29;20463;-70
2020/12/19 09:31:49;;;;;;;11.77;8.43;;;11.50;99.90;;;;;;4920922;29;20431;-68
2020/12/19 09:34:15;;;;;;;12.37;8.57;;;11.60;99.90;;;;;;4921015;29;20206;-69
2020/12/19 09:40:02;;;;;;;12.17;8.73;;;11.60;99.90;;;;;;4920737;29;20167;-68
2020/12/19 09:45:50;;;;;;;11.70;8.03;;;11.60;99.90;;;;;;4920573;29;20646;-68
2020/12/19 09:48:15;;;;;;;12.43;7.40;;;11.50;99.90;;;;;;4920346;29;20455;-68
2020/12/19 09:50:41;;;;;;;10.57;8.27;;;11.50;99.90;;;;;;4920589;29;20190;-68
2020/12/19 09:53:06;;;;;;;9.73;8.63;;;11.60;99.90;;;;;;4920628;29;20184;-69
2020/12/19 09:58:54;;;;;;;10.00;6.80;;;11.80;99.90;;;;;;4920348;29;20167;-72
2020/12/19 10:01:19;;;;;;;9.40;6.73;;;11.80;99.90;;;;;;4920518;29;20428;-69
2020/12/19 10:07:06;;;;;;;10.53;7.17;;;11.80;99.90;;;;;;4920233;29;20256;-69
2020/12/19 10:09:32;;;;;;;9.33;7.13;;;11.80;99.90;;;;;;4920858;29;20499;-69
2020/12/19 10:11:57;;;;;;;8.23;6.63;;;11.90;99.90;;;;;;4920156;29;20596;-69
2020/12/19 10:17:45;;;;;;;13.00;6.90;;;12.20;99.90;;;;;;4920044;29;20219;-70
2020/12/19 10:20:10;;;;;;;10.70;7.40;;;12.20;99.90;;;;;;4920059;29;20411;-69
2020/12/19 10:22:36;;;;;;;9.33;6.20;;;12.30;99.90;;;;;;4919853;29;20242;-69
2020/12/19 10:25:03;;;;;;;8.97;6.70;;;12.30;99.90;;;;;;4920118;29;20180;-69
2020/12/19 10:27:28;;;;;;;6.97;6.00;;;12.30;99.90;;;;;;4919613;29;20180;-69
2020/12/19 10:33:16;;;;;;;6.17;5.50;;;12.20;99.90;;;;;;4918795;29;20175;-70
2020/12/19 10:35:41;;;;;;;7.17;6.47;;;12.30;99.90;;;;;;4919696;29;20423;-79
2020/12/19 10:38:06;;;;;;;9.20;5.97;;;12.40;99.90;;;;;;4919771;29;20523;-78
2020/12/19 10:40:32;;;;;;;7.50;5.50;;;12.40;99.90;;;;;;4919468;29;20184;-75
2020/12/19 10:46:30;;;;;;;7.70;6.43;;;12.50;99.90;;;;;;4919555;29;20200;-75
2020/12/19 10:48:55;;;;;;;7.17;5.70;;;12.50;99.90;;;;;;4919344;29;20981;-72
2020/12/19 10:51:30;;;;;;;7.03;6.23;;;12.70;99.90;;;;;;4919644;29;20432;-73
2020/12/19 10:53:56;;;;;;;5.87;4.93;;;12.70;99.90;;;;;;4919604;29;20247;-72
2020/12/19 10:56:22;;;;;;;5.50;5.00;;;12.90;99.90;;;;;;4919496;29;20428;-72
2020/12/19 10:58:49;;;;;;;9.03;6.23;;;13.00;99.90;;;;;;4919511;29;20518;-72
2020/12/19 11:01:15;;;;;;;8.00;5.40;;;13.10;99.90;;;;;;4919399;29;20527;-73
2020/12/19 11:03:42;;;;;;;6.53;4.70;;;13.30;99.90;;;;;;4919742;29;20761;-72
2020/12/19 11:06:08;;;;;;;7.20;6.03;;;13.40;99.90;;;;;;4919419;29;20427;-73
2020/12/19 11:08:34;;;;;;;5.83;4.77;;;13.30;99.90;;;;;;4918878;29;20475;-72
2020/12/19 11:10:59;;;;;;;7.63;5.70;;;13.40;99.90;;;;;;4919272;29;20443;-72
2020/12/19 11:13:25;;;;;;;5.20;4.63;;;13.50;99.90;;;;;;4919274;29;20423;-72
2020/12/19 11:15:50;;;;;;;7.80;4.67;;;13.60;99.90;;;;;;4919002;29;20540;-72
2020/12/19 11:18:16;;;;;;;7.67;4.93;;;13.60;99.90;;;;;;4918918;29;20670;-73
2020/12/19 11:20:42;;;;;;;9.73;5.23;;;13.60;99.90;;;;;;4918919;29;20255;-73
2020/12/19 11:23:07;;;;;;;8.33;5.00;;;13.70;99.90;;;;;;4918697;29;20232;-73
2020/12/19 11:25:33;;;;;;;7.60;4.80;;;13.80;99.90;;;;;;4919006;29;20599;-77
2020/12/19 11:27:58;;;;;;;5.90;5.00;;;13.70;99.90;;;;;;4918933;29;20180;-77
2020/12/19 11:30:24;;;;;;;5.07;3.63;;;13.80;99.90;;;;;;4918676;29;20275;-77
2020/12/19 11:32:49;;;;;;;5.03;4.63;;;13.80;99.90;;;;;;4901752;29;20714;-77
2020/12/19 11:35:15;;;;;;;5.73;4.20;;;13.70;99.90;;;;;;4918833;29;20643;-77
2020/12/19 11:37:41;;;;;;;7.27;5.37;;;13.80;99.90;;;;;;4919105;29;20179;-76
2020/12/19 11:40:06;;;;;;;6.73;5.37;;;13.90;99.90;;;;;;4920205;29;20714;-76
2020/12/19 11:42:32;;;;;;;6.37;4.83;;;13.90;99.90;;;;;;4919148;29;20180;-77
2020/12/19 11:48:20;;;;;;;7.10;5.17;;;14.10;99.90;;;;;;4926199;29;20218;-76
2020/12/19 11:54:07;;;;;;;8.63;4.73;;;14.30;99.90;;;;;;4918544;29;20613;-76
2020/12/19 11:59:54;;;;;;;5.67;4.23;;;14.70;99.90;;;;;;4918541;29;20172;-79
2020/12/19 12:05:42;;;;;;;5.93;4.70;;;15.00;99.90;;;;;;4916889;29;20482;-75
2020/12/19 12:11:32;;;;;;;5.63;4.50;;;15.10;99.90;;;;;;4917936;29;20187;-79
2020/12/19 12:13:59;;;;;;;6.10;4.03;;;14.80;99.90;;;;;;4918625;29;20439;-86
2020/12/19 12:16:25;;;;;;;6.60;4.30;;;14.80;99.90;;;;;;4901411;29;20962;-82
2020/12/19 12:18:51;;;;;;;5.90;3.87;;;14.70;99.90;;;;;;4918043;29;20443;-84
2020/12/19 12:21:17;;;;;;;5.10;4.53;;;14.40;99.90;;;;;;4917837;29;20428;-79
2020/12/19 12:23:46;;;;;;;7.77;4.10;;;14.50;99.90;;;;;;4918994;29;20475;-84
2020/12/19 12:29:33;;;;;;;4.13;3.73;;;14.40;99.90;;;;;;4917596;29;20474;-84
2020/12/19 12:31:59;;;;;;;5.07;4.07;;;14.30;99.90;;;;;;4900865;29;20428;-73
2020/12/19 12:34:24;;;;;;;8.87;4.07;;;14.30;99.90;;;;;;4917352;29;20184;-77
2020/12/19 12:36:50;;;;;;;6.50;3.80;;;14.10;99.90;;;;;;4901679;29;20183;-84
2020/12/19 12:39:16;;;;;;;4.87;4.07;;;14.00;99.90;;;;;;4918108;29;20195;-80
2020/12/19 12:41:45;;;;;;;6.60;4.40;;;14.00;99.90;;;;;;4917722;29;20235;-88
2020/12/19 12:47:33;;;;;;;6.57;4.77;;;14.00;99.90;;;;;;4917387;29;20946;-77
2020/12/19 12:53:20;;;;;;;13.27;4.10;;;13.70;99.90;;;;;;4917192;29;20235;-73
2020/12/19 12:59:08;;;;;;;4.90;3.63;;;13.80;99.90;;;;;;4917187;29;20740;-72
2020/12/19 13:01:34;;;;;;;4.50;3.97;;;13.80;99.90;;;;;;4917459;29;20435;-72
2020/12/19 13:04:00;;;;;;;11.50;5.23;;;13.70;99.90;;;;;;4917439;29;20172;-76
2020/12/19 13:06:26;;;;;;;8.10;3.87;;;13.60;99.90;;;;;;4917343;29;20443;-73
2020/12/19 13:12:13;;;;;;;6.53;4.10;;;13.60;99.90;;;;;;4917105;29;20231;-73
2020/12/19 13:18:02;;;;;;;5.13;4.53;;;13.60;99.90;;;;;;4917119;29;20255;-78
2020/12/19 13:23:49;;;;;;;6.37;2.87;;;13.90;99.90;;;;;;4915479;29;20483;-76
2020/12/19 13:26:15;;;;;;;7.07;4.70;;;14.20;99.90;;;;;;4917017;29;20428;-76
2020/12/19 13:28:44;;;;;;;4.73;3.67;;;14.30;99.90;;;;;;4916942;29;20251;-77
2020/12/19 13:31:10;;;;;;;4.70;3.87;;;14.40;99.90;;;;;;4917116;29;20838;-76
2020/12/19 13:36:57;;;;;;;4.40;3.57;;;14.80;99.90;;;;;;4916893;29;20212;-77
2020/12/19 13:39:23;;;;;;;5.13;3.47;;;15.00;99.90;;;;;;4917113;29;20844;-80
2020/12/19 13:41:48;;;;;;;4.93;3.07;;;15.10;99.90;;;;;;4917007;29;20519;-73
2020/12/19 13:44:15;;;;;;;5.33;3.00;;;15.20;99.90;;;;;;4916956;29;20180;-73
2020/12/19 13:50:04;;;;;;;4.70;3.50;;;15.40;99.90;;;;;;4916608;29;20486;-73
2020/12/19 13:52:29;;;;;;;5.57;3.40;;;15.30;99.90;;;;;;4916918;29;20423;-73
2020/12/19 13:54:55;;;;;;;5.17;4.23;;;15.20;99.90;;;;;;4916941;29;20518;-74
2020/12/19 13:57:21;;;;;;;3.70;2.50;;;15.10;99.90;;;;;;4916521;29;20187;-77
2020/12/19 13:59:46;;;;;;;2.80;2.50;;;15.00;99.90;;;;;;4916555;29;20227;-76
2020/12/19 14:02:12;;;;;;;2.90;2.60;;;15.00;99.90;;;;;;4916928;29;20266;-75
2020/12/19 14:07:59;;;;;;;3.30;3.00;;;14.90;99.90;;;;;;4917695;29;20224;-75
2020/12/19 14:13:46;;;;;;;3.30;2.53;;;14.70;99.90;;;;;;4919986;29;20308;-75
2020/12/19 14:16:12;;;;;;;7.13;3.63;;;14.70;99.90;;;;;;4919922;29;20983;-75
2020/12/19 14:18:37;;;;;;;7.53;3.33;;;14.70;99.90;;;;;;4919504;29;20263;-75
2020/12/19 14:21:04;;;;;;;4.90;3.30;;;14.70;99.90;;;;;;4919865;29;20212;-75
2020/12/19 14:23:30;;;;;;;4.43;3.00;;;14.60;99.90;;;;;;4919652;29;20232;-76
2020/12/19 14:25:55;;;;;;;8.13;3.07;;;14.60;99.90;;;;;;4919610;29;20443;-74
2020/12/19 14:28:20;;;;;;;2.93;2.50;;;14.50;99.90;;;;;;4919853;29;20259;-75
2020/12/19 14:30:46;;;;;;;4.57;2.90;;;14.50;99.90;;;;;;4919682;29;20274;-75
2020/12/19 14:33:11;;;;;;;7.07;3.57;;;14.50;99.90;;;;;;4919974;29;20203;-75
2020/12/19 14:35:37;;;;;;;3.23;2.60;;;14.50;99.90;;;;;;4919977;29;20567;-74
2020/12/19 14:38:03;;;;;;;3.20;2.87;;;14.50;99.90;;;;;;4919572;29;20243;-75
2020/12/19 14:40:29;;;;;;;3.17;2.77;;;14.40;99.90;;;;;;4920390;29;20186;-75
2020/12/19 14:42:54;;;;;;;3.03;2.67;;;14.40;99.90;;;;;;4919825;29;20856;-74
2020/12/19 14:45:20;;;;;;;4.90;3.00;;;14.40;99.90;;;;;;4919726;29;20664;-74
2020/12/19 14:47:46;;;;;;;2.43;2.23;;;14.30;99.90;;;;;;4919747;29;20184;-75
2020/12/19 14:50:12;;;;;;;4.63;3.00;;;14.20;99.90;;;;;;4919652;29;20289;-74
2020/12/19 14:55:59;;;;;;;5.27;3.53;;;14.10;99.90;;;;;;4919326;29;20171;-74
2020/12/19 14:58:25;;;;;;;3.20;2.47;;;14.10;99.90;;;;;;4919479;29;20428;-74
2020/12/19 15:00:50;;;;;;;3.53;3.07;;;14.10;99.90;;;;;;4919563;29;20184;-74
2020/12/19 15:03:16;;;;;;;5.37;3.20;;;14.10;99.90;;;;;;4919113;29;20540;-74
2020/12/19 15:05:41;;;;;;;4.90;3.57;;;13.90;99.90;;;;;;4919455;29;20187;-74
2020/12/19 15:08:07;;;;;;;6.97;3.43;;;13.90;99.90;;;;;;4919253;29;20636;-74
2020/12/19 15:10:32;;;;;;;6.83;3.30;;;13.90;99.90;;;;;;4919035;29;20184;-74
2020/12/19 15:12:58;;;;;;;4.10;2.97;;;13.80;99.90;;;;;;4919238;29;20172;-74
2020/12/19 15:15:24;;;;;;;3.63;3.10;;;13.80;99.90;;;;;;4919292;29;20187;-75
2020/12/19 15:17:49;;;;;;;4.27;3.60;;;13.90;99.90;;;;;;4919302;29;20176;-75
2020/12/19 15:20:15;;;;;;;5.40;3.77;;;13.90;99.90;;;;;;4918774;29;21040;-74
2020/12/19 15:22:41;;;;;;;5.13;3.87;;;13.80;99.90;;;;;;4918838;29;20230;-74
2020/12/19 15:25:06;;;;;;;3.40;2.77;;;13.70;99.90;;;;;;4918831;29;20172;-75
2020/12/19 15:27:32;;;;;;;4.77;3.27;;;13.70;99.90;;;;;;4919033;29;20190;-74
2020/12/19 15:29:57;;;;;;;6.33;3.33;;;13.70;99.90;;;;;;4918578;29;20230;-74
2020/12/19 15:35:45;;;;;;;4.07;3.07;;;13.70;99.90;;;;;;4918870;29;20565;-76
2020/12/19 15:41:32;;;;;;;5.50;3.40;;;13.50;99.90;;;;;;4918854;29;20248;-76
2020/12/19 15:43:58;;;;;;;3.70;3.10;;;13.60;99.90;;;;;;4918333;29;20971;-72
2020/12/19 15:46:23;;;;;;;4.87;3.07;;;13.50;99.90;;;;;;4918607;29;20179;-72
2020/12/19 15:48:49;;;;;;;5.70;3.13;;;13.40;99.90;;;;;;4901341;29;20212;-77
2020/12/19 15:51:14;;;;;;;5.10;3.70;;;13.30;99.90;;;;;;4917492;29;20517;-75
2020/12/19 15:57:04;;;;;;;6.77;4.80;;;13.30;99.90;;;;;;4918026;29;20699;-74
2020/12/19 15:59:30;;;;;;;4.50;3.20;;;13.30;99.90;;;;;;4918303;29;20499;-74
2020/12/19 16:05:18;;;;;;;5.37;3.33;;;13.30;99.90;;;;;;4917942;29;20415;-76
2020/12/19 16:07:44;;;;;;;3.27;2.97;;;13.40;99.90;;;;;;4917865;29;20530;-77
2020/12/19 16:10:10;;;;;;;3.83;3.10;;;13.40;99.90;;;;;;4917692;29;20254;-78
2020/12/19 16:12:36;;;;;;;4.20;3.37;;;13.40;99.90;;;;;;4918091;29;20487;-77
2020/12/19 16:15:02;;;;;;;10.13;3.80;;;13.30;99.90;;;;;;4917770;29;20186;-75
2020/12/19 16:20:50;;;;;;;5.63;3.47;;;13.40;99.90;;;;;;4917730;29;20475;-74
2020/12/19 16:23:15;;;;;;;6.40;4.20;;;13.30;99.90;;;;;;4917316;29;20483;-76
2020/12/19 16:29:07;;;;;;;4.80;3.50;;;13.30;99.90;;;;;;4917504;29;20251;-77
2020/12/19 16:31:39;;;;;;;5.80;3.30;;;13.30;99.90;;;;;;4917133;29;20732;-75
2020/12/19 16:37:27;;;;;;;3.57;2.67;;;13.20;99.90;;;;;;4917487;29;20415;-75
2020/12/19 16:43:16;;;;;;;4.70;3.73;;;13.40;99.90;;;;;;4917306;29;20414;-78
2020/12/19 16:45:42;;;;;;;5.50;3.27;;;13.40;99.90;;;;;;4917822;29;20436;-73
2020/12/19 16:51:55;;;;;;;5.30;3.37;;;13.20;99.90;;;;;;4917589;29;20487;-75
2020/12/19 16:54:21;;;;;;;8.97;3.50;;;13.40;99.90;;;;;;4917409;29;20440;-75
2020/12/19 16:58:35;;;;;;;3.93;3.50;;;13.60;99.90;;;;;;5089769;27;20573;-74
2020/12/19 17:01:01;;;;;;;8.00;3.43;;;13.50;99.90;;;;;;5089670;28;20428;-74
2020/12/19 17:03:26;;;;;;;5.33;3.70;;;13.60;99.90;;;;;;5089849;28;20170;-73
2020/12/19 17:05:52;;;;;;;5.00;3.70;;;13.60;99.90;;;;;;5089715;28;20589;-74
2020/12/19 17:08:17;;;;;;;5.57;4.10;;;13.60;99.90;;;;;;5089586;28;20215;-75
2020/12/19 17:10:43;;;;;;;3.60;3.30;;;13.50;99.90;;;;;;5089692;28;20219;-75
2020/12/19 17:13:08;;;;;;;3.83;3.37;;;13.50;99.90;;;;;;5089131;28;20178;-77
2020/12/19 17:15:34;;;;;;;4.37;3.50;;;13.40;99.90;;;;;;5090590;28;20249;-79
2020/12/19 17:17:59;;;;;;;4.40;3.87;;;13.40;99.90;;;;;;5090425;28;20266;-80
2020/12/19 17:20:25;;;;;;;8.10;3.67;;;13.30;99.90;;;;;;5088806;28;20177;-81
2020/12/19 17:22:50;;;;;;;4.17;3.37;;;13.30;99.90;;;;;;5088623;28;20644;-80
2020/12/19 17:25:16;;;;;;;4.63;3.17;;;13.40;99.90;;;;;;5093240;28;20184;-80
2020/12/19 17:27:42;;;;;;;4.83;2.97;;;13.50;99.90;;;;;;5088840;28;20166;-82
2020/12/19 17:30:08;;;;;;;3.60;2.87;;;13.40;99.90;;;;;;5091585;28;20173;-82
2020/12/19 17:32:34;;;;;;;8.33;3.27;;;13.40;99.90;;;;;;5111157;28;20868;-71
2020/12/19 17:34:59;;;;;;;5.50;3.37;;;13.40;99.90;;;;;;5110228;28;20173;-78
2020/12/19 17:37:25;;;;;;;5.03;4.10;;;13.40;99.90;;;;;;5110173;28;20623;-73
2020/12/19 17:39:50;;;;;;;4.80;3.23;;;13.50;99.90;;;;;;5093591;28;20174;-73
2020/12/19 17:42:16;;;;;;;4.70;2.40;;;13.50;99.90;;;;;;5088757;28;20182;-72
2020/12/19 17:44:41;;;;;;;4.93;4.00;;;13.60;99.90;;;;;;5093788;28;20178;-72
2020/12/19 17:47:07;;;;;;;4.80;3.73;;;13.50;99.90;;;;;;5088209;28;20172;-73
2020/12/19 17:49:32;;;;;;;3.97;3.00;;;13.60;99.90;;;;;;5087186;28;20633;-73
2020/12/19 17:51:58;;;;;;;4.73;4.13;;;13.60;99.90;;;;;;5087869;28;20242;-72
2020/12/19 17:54:23;;;;;;;4.50;2.97;;;13.60;99.90;;;;;;5088507;28;20285;-73
2020/12/19 17:56:53;;;;;;;4.53;3.50;;;13.70;99.90;;;;;;5087947;28;20256;-72
2020/12/19 17:59:19;;;;;;;7.70;3.63;;;13.70;99.90;;;;;;5088592;28;20177;-73
2020/12/19 18:01:44;;;;;;;7.90;3.60;;;13.60;99.90;;;;;;5088766;28;20420;-73
2020/12/19 18:04:10;;;;;;;6.27;3.43;;;13.60;99.90;;;;;;5088797;28;20694;-73
2020/12/19 18:06:35;;;;;;;4.33;3.57;;;13.50;99.90;;;;;;5088261;28;20207;-72
2020/12/19 18:09:01;;;;;;;5.10;4.60;;;13.60;99.90;;;;;;5078457;28;20257;-73
2020/12/19 18:11:26;;;;;;;3.47;3.17;;;13.60;99.90;;;;;;5074866;28;20269;-72
2020/12/19 18:13:52;;;;;;;5.73;4.00;;;13.50;99.90;;;;;;5074276;28;20186;-72
2020/12/19 18:16:17;;;;;;;5.53;3.50;;;13.60;99.90;;;;;;5073679;28;20174;-72
2020/12/19 18:18:43;;;;;;;7.00;5.30;;;13.50;99.90;;;;;;5074781;28;20577;-72
2020/12/19 18:21:12;;;;;;;7.20;3.60;;;13.50;99.90;;;;;;5074559;28;20178;-72
2020/12/19 18:23:38;;;;;;;8.23;3.40;;;13.60;99.90;;;;;;5073795;28;20459;-72
2020/12/19 18:26:03;;;;;;;3.73;3.20;;;13.60;99.90;;;;;;5073179;28;20516;-72
2020/12/19 18:28:29;;;;;;;4.27;3.07;;;13.60;99.90;;;;;;5074355;28;20492;-72
2020/12/19 18:30:55;;;;;;;5.90;4.30;;;13.70;99.90;;;;;;5072906;28;20588;-72
2020/12/19 18:33:21;;;;;;;3.67;3.33;;;13.70;99.90;;;;;;5073072;28;20192;-72
2020/12/19 18:35:47;;;;;;;3.87;3.47;;;13.70;99.90;;;;;;5073610;28;20178;-74
2020/12/19 18:38:12;;;;;;;4.20;2.80;;;13.60;99.90;;;;;;5074260;28;20476;-67
2020/12/19 18:40:41;;;;;;;6.40;3.60;;;13.70;99.90;;;;;;5074287;28;20179;-66
2020/12/19 18:43:06;;;;;;;7.40;3.10;;;13.60;99.90;;;;;;5074273;28;20228;-66
2020/12/19 18:45:32;;;;;;;5.43;3.60;;;13.60;99.90;;;;;;5074189;28;20839;-66
2020/12/19 18:47:57;;;;;;;5.23;2.93;;;13.70;99.90;;;;;;5074234;28;20193;-66
2020/12/19 18:50:23;;;;;;;4.80;3.33;;;13.50;99.90;;;;;;5073908;28;20225;-66
2020/12/19 18:52:49;;;;;;;4.90;3.27;;;13.50;99.90;;;;;;5074293;28;20186;-66
2020/12/19 18:55:15;;;;;;;6.30;3.87;;;13.50;99.90;;;;;;5074268;28;20178;-66
2020/12/19 18:57:40;;;;;;;6.40;4.53;;;13.50;99.90;;;;;;5073820;28;20245;-66
2020/12/19 19:00:07;;;;;;;8.07;3.80;;;13.60;99.90;;;;;;5074155;28;20257;-66
2020/12/19 19:02:33;;;;;;;7.53;3.50;;;13.50;99.90;;;;;;5074029;28;20179;-66
2020/12/19 19:04:59;;;;;;;3.80;3.50;;;13.50;99.90;;;;;;5074166;28;20424;-66
2020/12/19 19:07:24;;;;;;;7.70;3.50;;;13.50;99.90;;;;;;5073865;28;20649;-65
2020/12/19 19:09:51;;;;;;;4.47;3.50;;;13.50;99.90;;;;;;5073868;28;20425;-65
2020/12/19 19:12:18;;;;;;;6.40;4.07;;;13.50;99.90;;;;;;5074037;28;20182;-66
2020/12/19 19:14:43;;;;;;;4.80;3.37;;;13.40;99.90;;;;;;5073759;28;20447;-66
2020/12/19 19:17:09;;;;;;;4.00;3.60;;;13.30;99.90;;;;;;5073786;28;20471;-66
2020/12/19 19:19:35;;;;;;;3.87;3.47;;;13.30;99.90;;;;;;5073255;28;20270;-66
2020/12/19 19:22:02;;;;;;;5.30;3.60;;;13.30;99.90;;;;;;5072044;28;20588;-65
2020/12/19 19:24:28;;;;;;;5.27;3.80;;;13.30;99.90;;;;;;5073513;28;20532;-65